createdAt,value
2017-08-09T00:00:01.317Z,39.13
2017-08-09T00:02:29.468Z,35.97
2017-08-09T00:04:57.498Z,43.33
2017-08-09T00:07:25.563Z,37.00
2017-08-09T00:09:53.724Z,39.50
2017-08-09T00:12:21.831Z,34.93
2017-08-09T00:14:49.834Z,41.17
2017-08-09T00:17:18.000Z,41.13
2017-08-09T00:19:46.044Z,46.13
2017-08-09T00:22:14.056Z,33.33
2017-08-09T00:24:42.228Z,38.00
2017-08-09T00:27:10.274Z,36.43
2017-08-09T00:29:38.346Z,31.63
2017-08-09T00:32:06.492Z,42.80
2017-08-09T00:34:34.574Z,39.27
2017-08-09T00:37:02.824Z,37.70
2017-08-09T00:39:31.044Z,49.50
2017-08-09T00:41:59.125Z,42.23
2017-08-09T00:44:27.218Z,30.90
2017-08-09T00:46:55.540Z,35.67
2017-08-09T00:49:23.656Z,43.47
2017-08-09T00:51:51.872Z,44.33
2017-08-09T00:54:20.024Z,43.47
2017-08-09T00:56:48.070Z,47.13
2017-08-09T00:59:16.108Z,43.60
2017-08-09T01:01:44.280Z,35.87
2017-08-09T01:04:12.359Z,45.67
2017-08-09T01:06:40.439Z,51.47
2017-08-09T01:09:08.569Z,36.80
2017-08-09T01:11:36.641Z,43.57
2017-08-09T01:14:04.671Z,37.90
2017-08-09T01:16:32.946Z,36.83
2017-08-09T01:19:00.965Z,34.27
2017-08-09T01:21:28.961Z,51.80
2017-08-09T01:23:57.165Z,38.90
2017-08-09T01:26:25.258Z,55.37
2017-08-09T01:28:53.369Z,51.10
2017-08-09T01:31:21.584Z,51.90
2017-08-09T01:33:49.634Z,44.00
2017-08-09T01:36:17.692Z,40.80
2017-08-09T01:38:45.891Z,42.97
2017-08-09T01:41:14.051Z,52.80
2017-08-09T01:43:42.134Z,56.17
2017-08-09T01:46:10.348Z,51.30
2017-08-09T01:48:38.448Z,46.90
2017-08-09T01:51:06.533Z,44.17
2017-08-09T01:53:34.862Z,40.33
2017-08-09T01:56:02.968Z,54.73
2017-08-09T01:58:31.077Z,50.13
2017-08-09T02:00:59.525Z,33.90
2017-08-09T02:03:27.627Z,51.00
2017-08-09T02:05:55.751Z,53.07
2017-08-09T02:08:23.880Z,42.03
2017-08-09T02:10:51.883Z,38.07
2017-08-09T02:13:19.914Z,43.93
2017-08-09T02:15:48.092Z,30.53
2017-08-09T02:18:16.186Z,41.80
2017-08-09T02:20:44.268Z,23.97
2017-08-09T02:23:12.422Z,38.90
2017-08-09T02:25:40.468Z,38.27
2017-08-09T02:28:08.585Z,41.40
2017-08-09T02:30:36.890Z,40.80
2017-08-09T02:33:05.027Z,31.37
2017-08-09T02:35:33.054Z,50.27
2017-08-09T02:38:01.245Z,25.20
2017-08-09T02:40:29.312Z,31.93
2017-08-09T02:42:57.350Z,37.50
2017-08-09T02:45:25.578Z,40.70
2017-08-09T02:47:53.620Z,38.10
2017-08-09T02:50:21.701Z,41.57
2017-08-09T02:52:49.901Z,34.43
2017-08-09T02:55:18.084Z,42.07
2017-08-09T02:57:46.162Z,33.23
2017-08-09T03:00:14.354Z,36.23
2017-08-09T03:02:42.402Z,32.63
2017-08-09T03:05:10.490Z,31.37
2017-08-09T03:07:38.664Z,35.23
2017-08-09T03:10:06.725Z,44.10
2017-08-09T03:12:34.783Z,49.60
2017-08-09T03:15:02.986Z,37.70
2017-08-09T03:17:31.061Z,34.90
2017-08-09T03:19:59.106Z,43.93
2017-08-09T03:22:27.342Z,45.87
2017-08-09T03:24:55.418Z,51.97
2017-08-09T03:27:23.489Z,35.80
2017-08-09T03:29:51.701Z,40.17
2017-08-09T03:32:19.753Z,40.87
2017-08-09T03:34:47.902Z,46.20
2017-08-09T03:37:16.092Z,45.83
2017-08-09T03:39:44.089Z,48.70
2017-08-09T03:42:12.149Z,40.20
2017-08-09T03:44:40.310Z,38.70
2017-08-09T03:47:08.392Z,33.90
2017-08-09T03:49:36.427Z,50.37
2017-08-09T03:52:04.602Z,42.50
2017-08-09T03:54:32.670Z,47.80
2017-08-09T03:57:00.874Z,47.33
2017-08-09T03:59:29.052Z,52.97
2017-08-09T04:01:57.132Z,52.87
2017-08-09T04:04:25.226Z,44.47
2017-08-09T04:06:53.348Z,57.00
2017-08-09T04:09:21.380Z,57.47
2017-08-09T04:11:49.424Z,50.90
2017-08-09T04:14:17.621Z,47.40
2017-08-09T04:16:45.722Z,55.00
2017-08-09T04:19:13.722Z,53.50
2017-08-09T04:21:41.908Z,62.67
2017-08-09T04:24:09.994Z,56.23
2017-08-09T04:26:38.032Z,52.53
2017-08-09T04:29:06.269Z,47.87
2017-08-09T04:31:34.359Z,54.90
2017-08-09T04:34:02.452Z,44.57
2017-08-09T04:36:30.701Z,52.43
2017-08-09T04:38:58.763Z,56.80
2017-08-09T04:41:26.758Z,54.63
2017-08-09T04:43:54.930Z,62.07
2017-08-09T04:46:23.048Z,82.67
2017-08-09T04:48:51.106Z,70.93
2017-08-09T04:51:19.317Z,73.63
2017-08-09T04:53:47.430Z,79.80
2017-08-09T04:56:15.450Z,77.65
2017-08-09T04:58:43.787Z,95.97
2017-08-09T05:01:11.817Z,92.88
2017-08-09T05:03:39.880Z,60.40
2017-08-09T05:06:08.075Z,56.05
2017-08-09T05:08:36.136Z,64.50
2017-08-09T05:11:04.225Z,66.18
2017-08-09T05:13:32.513Z,63.42
2017-08-09T05:16:00.600Z,69.95
2017-08-09T05:18:28.664Z,68.95
2017-08-09T05:20:56.867Z,58.40
2017-08-09T05:23:24.885Z,72.50
2017-08-09T05:25:52.966Z,56.15
2017-08-09T05:28:21.132Z,66.82
2017-08-09T05:30:49.257Z,75.32
2017-08-09T05:33:17.351Z,63.53
2017-08-09T05:35:45.517Z,64.72
2017-08-09T05:38:13.553Z,81.47
2017-08-09T05:40:41.649Z,83.75
2017-08-09T05:43:09.848Z,68.62
2017-08-09T05:45:37.943Z,80.75
2017-08-09T05:48:06.005Z,69.22
2017-08-09T05:50:34.218Z,57.67
2017-08-09T05:53:02.278Z,81.05
2017-08-09T05:55:30.352Z,80.28
2017-08-09T05:57:58.551Z,67.82
2017-08-09T06:00:26.783Z,59.20
2017-08-09T06:02:54.896Z,62.60
2017-08-09T06:05:23.072Z,63.60
2017-08-09T06:07:51.160Z,68.15
2017-08-09T06:10:19.226Z,65.78
2017-08-09T06:12:47.377Z,69.43
2017-08-09T06:15:15.464Z,54.97
2017-08-09T06:17:43.534Z,93.25
2017-08-09T06:20:11.732Z,73.15
2017-08-09T06:22:39.801Z,71.20
2017-08-09T06:25:07.848Z,72.35
2017-08-09T06:27:36.052Z,79.90
2017-08-09T06:30:04.180Z,69.05
2017-08-09T06:32:32.279Z,54.15
2017-08-09T06:35:00.428Z,53.87
2017-08-09T06:37:28.462Z,76.03
2017-08-09T06:39:56.548Z,57.55
2017-08-09T06:42:24.761Z,39.53
2017-08-09T06:44:52.820Z,49.47
2017-08-09T06:47:20.885Z,69.00
2017-08-09T06:49:49.066Z,56.55
2017-08-09T06:52:17.149Z,49.72
2017-08-09T06:54:45.186Z,52.45
2017-08-09T06:57:13.378Z,49.70
2017-08-09T06:59:41.477Z,49.95
2017-08-09T07:02:09.644Z,50.50
2017-08-09T07:04:37.764Z,42.08
2017-08-09T07:07:05.857Z,41.40
2017-08-09T07:09:33.912Z,38.83
2017-08-09T07:12:02.066Z,41.33
2017-08-09T07:14:30.126Z,62.05
2017-08-09T07:16:58.226Z,52.30
2017-08-09T07:19:26.476Z,51.40
2017-08-09T07:21:54.511Z,51.08
2017-08-09T07:24:22.530Z,42.92
2017-08-09T07:26:50.674Z,36.83
2017-08-09T07:29:18.755Z,38.38
2017-08-09T07:31:46.818Z,44.03
2017-08-09T07:34:15.060Z,40.12
2017-08-09T07:36:43.104Z,37.67
2017-08-09T07:39:11.218Z,62.47
2017-08-09T07:41:39.517Z,50.33
2017-08-09T07:44:07.549Z,44.42
2017-08-09T07:46:35.654Z,54.67
2017-08-09T07:49:03.836Z,59.70
2017-08-09T07:51:31.950Z,43.00
2017-08-09T07:53:59.952Z,48.20
2017-08-09T07:56:28.216Z,50.65
2017-08-09T07:58:56.269Z,58.20
2017-08-09T08:01:24.379Z,45.03
2017-08-09T08:03:52.710Z,43.30
2017-08-09T08:06:20.714Z,56.90
2017-08-09T08:08:48.748Z,46.30
2017-08-09T08:11:16.931Z,54.33
2017-08-09T08:13:44.992Z,64.60
2017-08-09T08:16:13.042Z,49.88
2017-08-09T08:18:41.309Z,47.80
2017-08-09T08:21:09.393Z,49.92
2017-08-09T08:23:37.430Z,52.80
2017-08-09T08:26:05.640Z,49.90
2017-08-09T08:28:33.678Z,54.50
2017-08-09T08:31:01.707Z,46.97
2017-08-09T08:33:29.847Z,62.42
2017-08-09T08:35:57.933Z,81.53
2017-08-09T08:38:26.023Z,65.60
2017-08-09T08:40:54.188Z,74.43
2017-08-09T08:43:22.201Z,59.47
2017-08-09T08:45:50.275Z,61.50
2017-08-09T08:48:18.413Z,61.00
2017-08-09T08:50:46.469Z,67.10
2017-08-09T08:53:14.545Z,61.57
2017-08-09T08:55:42.692Z,62.58
2017-08-09T08:58:10.867Z,50.80
2017-08-09T09:00:38.946Z,42.77
2017-08-09T09:03:07.172Z,51.78
2017-08-09T09:05:35.358Z,52.65
2017-08-09T09:08:03.353Z,47.40
2017-08-09T09:10:31.527Z,43.63
2017-08-09T09:12:59.584Z,50.43
2017-08-09T09:15:27.632Z,62.60
2017-08-09T09:17:55.747Z,48.90
2017-08-09T09:20:23.838Z,47.63
2017-08-09T09:22:51.949Z,50.90
2017-08-09T09:25:20.110Z,41.10
2017-08-09T09:27:48.198Z,46.73
2017-08-09T09:30:16.287Z,42.93
2017-08-09T09:32:44.493Z,43.37
2017-08-09T09:35:12.572Z,45.63
2017-08-09T09:37:40.648Z,46.40
2017-08-09T09:40:08.817Z,38.60
2017-08-09T09:42:36.906Z,45.23
2017-08-09T09:45:04.942Z,47.33
2017-08-09T09:47:33.137Z,45.07
2017-08-09T09:50:01.182Z,79.17
2017-08-09T09:52:29.239Z,44.10
2017-08-09T09:54:57.400Z,31.63
2017-08-09T09:57:25.620Z,51.00
2017-08-09T09:59:53.663Z,44.73
2017-08-09T10:02:21.870Z,38.87
2017-08-09T10:04:49.858Z,39.00
2017-08-09T10:07:18.068Z,47.53
2017-08-09T10:09:46.257Z,43.57
2017-08-09T10:12:14.322Z,41.10
2017-08-09T10:14:42.356Z,43.27
2017-08-09T10:17:10.497Z,34.33
2017-08-09T10:19:38.581Z,43.27
2017-08-09T10:22:06.660Z,48.50
2017-08-09T10:24:34.786Z,52.67
2017-08-09T10:27:02.829Z,46.30
2017-08-09T10:29:30.823Z,39.33
2017-08-09T10:31:58.994Z,52.37
2017-08-09T10:34:27.014Z,45.27
2017-08-09T10:36:55.084Z,35.30
2017-08-09T10:39:23.239Z,35.10
2017-08-09T10:41:51.302Z,46.13
2017-08-09T10:44:19.353Z,48.87
2017-08-09T10:46:47.502Z,36.50
2017-08-09T10:49:15.498Z,42.37
2017-08-09T10:51:43.560Z,41.00
2017-08-09T10:54:11.700Z,44.33
2017-08-09T10:56:39.752Z,41.50
2017-08-09T10:59:07.853Z,39.97
2017-08-09T11:01:35.991Z,55.43
2017-08-09T11:04:04.060Z,44.70
2017-08-09T11:06:32.180Z,41.57
2017-08-09T11:09:00.476Z,35.93
2017-08-09T11:11:28.531Z,46.50
2017-08-09T11:13:56.653Z,41.83
2017-08-09T11:16:24.761Z,51.03
2017-08-09T11:18:52.934Z,45.87
2017-08-09T11:21:20.985Z,41.87
2017-08-09T11:23:49.170Z,40.17
2017-08-09T11:26:17.258Z,41.20
2017-08-09T11:28:45.318Z,37.20
2017-08-09T11:31:13.442Z,44.03
2017-08-09T11:33:41.510Z,51.87
2017-08-09T11:36:09.536Z,68.17
2017-08-09T11:38:37.712Z,48.80
2017-08-09T11:41:05.738Z,47.73
2017-08-09T11:43:33.795Z,47.70
2017-08-09T11:46:01.988Z,50.40
2017-08-09T11:48:30.080Z,47.50
2017-08-09T11:50:58.159Z,42.73
2017-08-09T11:53:26.355Z,48.90
2017-08-09T11:55:54.450Z,43.90
2017-08-09T11:58:22.561Z,33.70
2017-08-09T12:00:50.768Z,40.27
2017-08-09T12:03:18.810Z,42.40
2017-08-09T12:05:46.853Z,46.07
2017-08-09T12:08:15.016Z,40.83
2017-08-09T12:10:43.197Z,41.80
2017-08-09T12:13:11.253Z,36.40
2017-08-09T12:15:39.376Z,32.27
2017-08-09T12:18:07.456Z,30.97
2017-08-09T12:20:35.556Z,38.27
2017-08-09T12:23:03.768Z,35.03
2017-08-09T12:25:31.862Z,46.87
2017-08-09T12:27:59.902Z,33.60
2017-08-09T12:30:28.060Z,36.50
2017-08-09T12:32:56.126Z,38.80
2017-08-09T12:35:24.193Z,39.13
2017-08-09T12:37:52.327Z,46.87
2017-08-09T12:40:20.385Z,32.70
2017-08-09T12:42:48.473Z,36.97
2017-08-09T12:45:16.695Z,38.07
2017-08-09T12:47:44.776Z,33.30
2017-08-09T12:50:12.892Z,40.70
2017-08-09T12:52:41.090Z,38.73
2017-08-09T12:55:09.133Z,28.77
2017-08-09T12:57:37.194Z,37.27
2017-08-09T13:00:05.382Z,38.83
2017-08-09T13:02:33.482Z,34.73
2017-08-09T13:05:01.534Z,32.53
2017-08-09T13:07:29.661Z,34.13
2017-08-09T13:09:57.740Z,35.27
2017-08-09T13:12:25.934Z,37.03
2017-08-09T13:14:54.129Z,27.20
2017-08-09T13:17:22.168Z,32.60
2017-08-09T13:19:50.206Z,31.73
2017-08-09T13:22:18.396Z,32.30
2017-08-09T13:24:46.473Z,31.93
2017-08-09T13:27:14.521Z,33.03
2017-08-09T13:29:42.742Z,34.93
2017-08-09T13:32:10.823Z,39.17
2017-08-09T13:34:38.834Z,39.43
2017-08-09T13:37:06.976Z,28.43
2017-08-09T13:39:35.056Z,37.03
2017-08-09T13:42:03.130Z,39.93
2017-08-09T13:44:31.324Z,31.50
2017-08-09T13:46:59.413Z,41.33
2017-08-09T13:49:27.442Z,37.90
2017-08-09T13:51:55.566Z,37.77
2017-08-09T13:54:23.601Z,35.77
2017-08-09T13:56:51.693Z,31.83
2017-08-09T13:59:19.833Z,29.40
2017-08-09T14:01:47.911Z,29.60
2017-08-09T14:04:15.977Z,34.47
2017-08-09T14:06:44.189Z,36.23
2017-08-09T14:09:12.286Z,33.13
2017-08-09T14:11:40.344Z,33.60
2017-08-09T14:14:08.679Z,37.87
2017-08-09T14:16:36.890Z,32.03
2017-08-09T14:19:04.967Z,32.30
2017-08-09T14:21:33.157Z,39.23
2017-08-09T14:24:01.200Z,35.30
2017-08-09T14:26:29.266Z,40.00
2017-08-09T14:28:57.465Z,35.30
2017-08-09T14:31:25.498Z,37.43
2017-08-09T14:33:53.517Z,35.33
2017-08-09T14:36:21.673Z,28.10
2017-08-09T14:38:49.720Z,36.50
2017-08-09T14:41:17.802Z,32.60
2017-08-09T14:43:45.953Z,39.23
2017-08-09T14:46:13.967Z,28.67
2017-08-09T14:48:41.994Z,38.23
2017-08-09T14:51:10.300Z,36.90
2017-08-09T14:53:38.414Z,27.50
2017-08-09T14:56:06.414Z,32.80
2017-08-09T14:58:34.648Z,33.30
2017-08-09T15:01:02.662Z,32.13
2017-08-09T15:03:30.768Z,27.53
2017-08-09T15:05:58.929Z,35.70
2017-08-09T15:08:27.044Z,33.60
2017-08-09T15:10:55.088Z,41.63
2017-08-09T15:13:23.243Z,40.20
2017-08-09T15:15:51.440Z,30.60
2017-08-09T15:18:19.488Z,36.47
2017-08-09T15:20:47.668Z,30.13
2017-08-09T15:23:15.674Z,31.73
2017-08-09T15:25:43.752Z,34.47
2017-08-09T15:28:11.924Z,30.17
2017-08-09T15:30:40.007Z,31.83
2017-08-09T15:33:08.087Z,33.13
2017-08-09T15:35:36.248Z,33.13
2017-08-09T15:38:04.322Z,29.00
2017-08-09T15:40:32.380Z,29.47
2017-08-09T15:43:00.604Z,28.13
2017-08-09T15:45:28.652Z,35.03
2017-08-09T15:47:56.760Z,35.73
2017-08-09T15:50:24.961Z,33.90
2017-08-09T15:52:53.015Z,32.53
2017-08-09T15:55:21.091Z,31.60
2017-08-09T15:57:49.316Z,27.10
2017-08-09T16:00:17.317Z,31.83
2017-08-09T16:02:45.360Z,33.37
2017-08-09T16:05:13.566Z,28.93
2017-08-09T16:07:41.676Z,33.20
2017-08-09T16:10:09.756Z,21.30
2017-08-09T16:12:37.941Z,29.97
2017-08-09T16:15:05.987Z,34.90
2017-08-09T16:17:34.216Z,35.17
2017-08-09T16:20:02.379Z,29.47
2017-08-09T16:22:30.468Z,29.90
2017-08-09T16:24:58.574Z,34.60
2017-08-09T16:27:26.761Z,22.60
2017-08-09T16:29:54.817Z,29.83
2017-08-09T16:32:22.859Z,31.47
2017-08-09T16:34:51.040Z,51.10
2017-08-09T16:37:19.110Z,29.77
2017-08-09T16:39:47.105Z,33.40
2017-08-09T16:42:15.305Z,37.60
2017-08-09T16:44:43.398Z,30.83
2017-08-09T16:47:11.477Z,34.30
2017-08-09T16:49:39.674Z,34.03
2017-08-09T16:52:07.800Z,33.27
2017-08-09T16:54:35.857Z,38.73
2017-08-09T16:57:04.038Z,48.43
2017-08-09T16:59:32.120Z,27.87
2017-08-09T17:02:00.130Z,31.27
2017-08-09T17:04:28.254Z,25.87
2017-08-09T17:06:56.274Z,33.70
2017-08-09T17:09:24.342Z,26.67
2017-08-09T17:11:52.532Z,30.37
2017-08-09T17:14:20.634Z,28.43
2017-08-09T17:16:48.665Z,26.97
2017-08-09T17:19:16.941Z,26.73
2017-08-09T17:21:45.057Z,35.57
2017-08-09T17:24:13.089Z,30.13
2017-08-09T17:26:41.264Z,32.47
2017-08-09T17:29:09.338Z,27.40
2017-08-09T17:31:39.739Z,30.70
2017-08-09T17:34:07.963Z,25.40
2017-08-09T17:36:36.049Z,36.73
2017-08-09T17:39:04.402Z,26.00
2017-08-09T17:41:32.554Z,32.37
2017-08-09T17:44:00.617Z,31.80
2017-08-09T17:46:28.683Z,27.40
2017-08-09T17:48:56.851Z,29.33
2017-08-09T17:51:24.933Z,30.60
2017-08-09T17:53:53.012Z,39.77
2017-08-09T17:56:21.501Z,23.93
2017-08-09T17:58:50.328Z,34.87
2017-08-09T18:01:18.617Z,31.63
2017-08-09T18:03:47.011Z,34.20
2017-08-09T18:06:15.336Z,32.57
2017-08-09T18:08:43.421Z,25.33
2017-08-09T18:11:11.564Z,28.77
2017-08-09T18:13:39.633Z,22.10
2017-08-09T18:16:07.891Z,24.73
2017-08-09T18:18:36.074Z,31.33
2017-08-09T18:21:04.409Z,27.40
2017-08-09T18:23:32.400Z,27.97
2017-08-09T18:26:00.612Z,29.27
2017-08-09T18:28:28.684Z,29.90
2017-08-09T18:30:56.744Z,21.70
2017-08-09T18:33:24.921Z,29.17
2017-08-09T18:35:52.994Z,26.23
2017-08-09T18:38:21.100Z,28.73
2017-08-09T18:40:49.289Z,27.60
2017-08-09T18:43:17.332Z,27.90
2017-08-09T18:45:45.398Z,21.67
2017-08-09T18:48:13.562Z,28.83
2017-08-09T18:50:41.570Z,29.53
2017-08-09T18:53:09.615Z,23.67
2017-08-09T18:55:37.806Z,33.23
2017-08-09T18:58:05.846Z,23.93
2017-08-09T19:00:33.972Z,23.47
2017-08-09T19:03:02.130Z,35.83
2017-08-09T19:05:30.308Z,33.73
2017-08-09T19:07:58.414Z,23.20
2017-08-09T19:10:26.588Z,34.30
2017-08-09T19:12:54.618Z,20.80
2017-08-09T19:15:22.650Z,31.20
2017-08-09T19:17:50.828Z,22.27
2017-08-09T19:20:18.865Z,29.23
2017-08-09T19:22:46.994Z,25.40
2017-08-09T19:25:15.173Z,34.23
2017-08-09T19:27:43.220Z,22.70
2017-08-09T19:30:11.237Z,32.07
2017-08-09T19:32:39.408Z,31.50
2017-08-09T19:35:07.478Z,29.70
2017-08-09T19:37:35.574Z,37.07
2017-08-09T19:40:03.757Z,25.47
2017-08-09T19:42:31.876Z,29.33
2017-08-09T19:44:59.954Z,29.73
2017-08-09T19:47:28.143Z,32.40
2017-08-09T19:49:56.204Z,31.63
2017-08-09T19:52:24.274Z,24.60
2017-08-09T19:54:52.460Z,28.50
2017-08-09T19:57:20.526Z,29.83
2017-08-09T19:59:48.554Z,29.00
2017-08-09T20:02:16.706Z,24.37
2017-08-09T20:04:44.773Z,20.30
2017-08-09T20:07:12.897Z,32.40
2017-08-09T20:09:41.063Z,35.53
2017-08-09T20:12:09.140Z,30.30
2017-08-09T20:14:37.170Z,22.53
2017-08-09T20:17:05.344Z,24.47
2017-08-09T20:19:33.412Z,26.90
2017-08-09T20:22:01.465Z,28.30
2017-08-09T20:24:29.765Z,33.80
2017-08-09T20:26:57.820Z,27.53
2017-08-09T20:29:25.922Z,30.93
2017-08-09T20:31:54.096Z,29.03
2017-08-09T20:34:22.148Z,29.23
2017-08-09T20:36:50.166Z,28.40
2017-08-09T20:39:18.300Z,26.27
2017-08-09T20:41:46.310Z,25.33
2017-08-09T20:44:14.332Z,35.67
2017-08-09T20:46:42.527Z,25.87
2017-08-09T20:49:10.598Z,32.13
2017-08-09T20:51:38.671Z,34.20
2017-08-09T20:54:06.840Z,32.90
2017-08-09T20:56:34.910Z,25.13
2017-08-09T20:59:02.988Z,30.43
2017-08-09T21:01:31.155Z,24.70
2017-08-09T21:03:59.211Z,25.80
2017-08-09T21:06:27.266Z,28.20
2017-08-09T21:08:55.468Z,32.83
2017-08-09T21:11:23.474Z,25.37
2017-08-09T21:13:51.497Z,31.83
2017-08-09T21:16:19.674Z,31.33
2017-08-09T21:18:47.776Z,31.20
2017-08-09T21:21:15.812Z,27.47
2017-08-09T21:23:43.947Z,25.50
2017-08-09T21:26:12.190Z,31.57
2017-08-09T21:28:40.202Z,30.23
2017-08-09T21:31:08.362Z,35.53
2017-08-09T21:33:36.425Z,28.10
2017-08-09T21:36:04.472Z,25.77
2017-08-09T21:38:32.676Z,31.23
2017-08-09T21:41:00.782Z,30.97
2017-08-09T21:43:28.849Z,22.20
2017-08-09T21:45:57.021Z,35.27
2017-08-09T21:48:25.062Z,27.53
2017-08-09T21:50:53.112Z,30.30
2017-08-09T21:53:21.333Z,21.97
2017-08-09T21:55:49.380Z,23.83
2017-08-09T21:58:17.432Z,30.87
2017-08-09T22:00:45.754Z,29.40
2017-08-09T22:03:13.810Z,32.67
2017-08-09T22:05:41.893Z,23.93
2017-08-09T22:08:10.044Z,26.20
2017-08-09T22:10:38.160Z,28.50
2017-08-09T22:13:06.212Z,22.20
2017-08-09T22:15:34.464Z,23.20
2017-08-09T22:18:02.542Z,18.37
2017-08-09T22:20:30.580Z,26.07
2017-08-09T22:22:58.766Z,26.83
2017-08-09T22:25:26.849Z,27.17
2017-08-09T22:27:55.071Z,25.50
2017-08-09T22:43:28.356Z,34.00
2017-08-09T22:45:56.386Z,29.60
2017-08-09T22:48:24.444Z,30.20
2017-08-09T22:50:52.724Z,27.33
2017-08-09T22:53:20.759Z,39.70
2017-08-09T22:55:48.845Z,35.07
2017-08-09T22:58:16.986Z,36.27
2017-08-09T23:00:44.989Z,31.80
2017-08-09T23:03:13.057Z,33.40
2017-08-09T23:05:41.209Z,32.07
2017-08-09T23:08:09.304Z,28.87
2017-08-09T23:10:37.316Z,26.93
2017-08-09T23:13:05.488Z,29.97
2017-08-09T23:15:33.509Z,24.27
2017-08-09T23:18:01.584Z,25.70
2017-08-09T23:20:29.777Z,40.60
2017-08-09T23:22:57.849Z,29.63
2017-08-09T23:25:25.984Z,35.60
2017-08-09T23:27:54.125Z,30.03
2017-08-09T23:30:22.189Z,30.17
2017-08-09T23:32:50.236Z,34.63
2017-08-09T23:35:18.422Z,33.83
2017-08-09T23:37:46.483Z,33.87
2017-08-09T23:40:14.569Z,23.83
2017-08-09T23:42:42.732Z,30.93
2017-08-09T23:45:10.779Z,35.40
2017-08-09T23:47:38.848Z,37.10
2017-08-09T23:50:07.059Z,32.47
2017-08-09T23:52:35.102Z,27.70
2017-08-09T23:55:03.180Z,34.53
2017-08-09T23:57:31.397Z,38.67
2017-08-09T23:59:59.445Z,36.83
